Time;durP1;ratioP1;P1;durP2;ratioP2;P2;SDS_P1;SDS_P2;PMS_P1;PMS_P2;Temp;Humidity;BMP_temperature;BMP_pressure;BME280_temperature;BME280_humidity;BME280_pressure;Samples;Min_cycle;Max_cycle;Signal;HPM_P1;HPM_P2
2022/01/31 00:00:11;;;;;;;20.77;7.82;;;;;;;3.26;81.99;101347.94;1044200;28;20318;-75
2022/01/31 00:00:46;;;;;;;23.00;7.05;;;;;;;3.25;81.97;101335.78;1040004;28;20867;-75
2022/01/31 00:01:19;;;;;;;24.73;7.95;;;;;;;3.23;82.20;101348.28;1039749;28;20291;-75
2022/01/31 00:01:50;;;;;;;26.05;8.70;;;;;;;3.24;81.92;101344.66;1039574;28;20845;-76
2022/01/31 00:02:22;;;;;;;26.08;6.88;;;;;;;3.29;81.97;101337.13;1039858;28;20307;-75
2022/01/31 00:02:54;;;;;;;22.70;8.93;;;;;;;3.32;82.22;101343.91;1035733;28;20300;-76
2022/01/31 00:03:26;;;;;;;25.52;8.68;;;;;;;3.33;81.87;101335.00;1031513;28;20293;-76
2022/01/31 00:03:58;;;;;;;19.13;8.15;;;;;;;3.28;81.98;101338.09;1032074;28;20312;-76
2022/01/31 00:04:29;;;;;;;28.95;8.10;;;;;;;3.24;82.19;101334.13;1035731;28;20311;-75
2022/01/31 00:05:02;;;;;;;26.63;8.80;;;;;;;3.25;82.48;101319.97;1036306;28;20307;-75
2022/01/31 00:05:34;;;;;;;25.15;7.82;;;;;;;3.22;82.39;101320.28;1039766;28;20307;-76
2022/01/31 00:06:05;;;;;;;25.92;9.10;;;;;;;3.24;82.49;101322.78;1039767;28;20308;-76
2022/01/31 00:06:38;;;;;;;24.75;9.15;;;;;;;3.25;82.33;101325.25;1040592;28;20650;-76
2022/01/31 00:07:10;;;;;;;25.63;8.15;;;;;;;3.18;82.84;101324.22;1039765;28;20303;-75
2022/01/31 00:07:42;;;;;;;21.23;7.82;;;;;;;3.19;82.79;101320.59;1035488;28;20468;-75
2022/01/31 00:08:22;;;;;;;22.52;7.85;;;;;;;3.21;82.81;101317.81;1031409;28;20300;-76
2022/01/31 00:08:54;;;;;;;27.17;7.70;;;;;;;3.23;82.78;101310.59;1032771;28;20316;-75
2022/01/31 00:09:26;;;;;;;22.77;7.60;;;;;;;3.26;82.99;101312.91;1037078;28;20869;-75
2022/01/31 00:09:58;;;;;;;22.90;8.90;;;;;;;3.25;82.86;101306.00;1041719;28;20300;-75
2022/01/31 00:10:31;;;;;;;23.58;8.60;;;;;;;3.25;82.94;101304.19;1039473;28;20315;-75
2022/01/31 00:11:03;;;;;;;22.83;7.95;;;;;;;3.26;82.85;101307.63;1040652;28;20288;-76
2022/01/31 00:11:41;;;;;;;25.23;9.15;;;;;;;3.30;82.74;101307.19;1043739;28;20295;-76
2022/01/31 00:12:18;;;;;;;24.27;9.30;;;;;;;3.31;83.15;101300.94;1039594;28;20355;-76
2022/01/31 00:12:55;;;;;;;20.15;8.32;;;;;;;3.34;82.62;101303.25;1037971;28;20304;-75
2022/01/31 00:13:37;;;;;;;30.17;8.55;;;;;;;3.33;82.57;101301.63;1039746;28;20292;-75
2022/01/31 00:14:16;;;;;;;21.40;8.07;;;;;;;3.32;82.97;101310.50;1043436;28;20299;-76
2022/01/31 00:14:50;;;;;;;25.17;7.78;;;;;;;3.35;83.10;101302.28;1039854;28;20295;-76
2022/01/31 00:15:22;;;;;;;24.42;8.35;;;;;;;3.39;82.37;101298.34;1039516;28;20805;-76
2022/01/31 00:15:56;;;;;;;23.88;8.23;;;;;;;3.38;82.48;101294.06;1039446;28;20296;-76
2022/01/31 00:16:32;;;;;;;19.50;8.82;;;;;;;3.38;82.65;101294.06;1042357;28;20299;-76
2022/01/31 00:17:05;;;;;;;30.15;8.68;;;;;;;3.39;82.56;101290.44;1043961;28;20302;-76
2022/01/31 00:17:36;;;;;;;25.92;8.55;;;;;;;3.40;82.66;101299.16;1043685;28;20337;-76
2022/01/31 00:18:08;;;;;;;22.08;7.97;;;;;;;3.39;82.82;101290.44;1043543;28;20304;-76
2022/01/31 00:18:40;;;;;;;27.10;8.73;;;;;;;3.40;82.64;101292.09;1039234;28;20300;-75
2022/01/31 00:19:12;;;;;;;22.73;8.35;;;;;;;3.40;82.52;101291.25;1035640;28;20390;-75
2022/01/31 00:19:44;;;;;;;21.58;8.60;;;;;;;3.41;82.77;101288.47;1035550;28;20296;-75
2022/01/31 00:20:15;;;;;;;24.00;8.18;;;;;;;3.41;82.60;101291.09;1031450;28;20912;-75
2022/01/31 00:20:47;;;;;;;28.67;8.88;;;;;;;3.39;82.65;101285.19;1033319;28;20300;-75
2022/01/31 00:21:19;;;;;;;24.30;9.07;;;;;;;3.37;82.94;101275.78;1039749;28;20303;-76
2022/01/31 00:21:50;;;;;;;19.75;8.38;;;;;;;3.37;83.03;101281.88;1041123;28;20373;-75
2022/01/31 00:22:22;;;;;;;30.38;9.73;;;;;;;3.38;82.89;101272.16;1041195;28;20374;-76
2022/01/31 00:22:54;;;;;;;21.23;8.68;;;;;;;3.39;83.08;101269.38;1035992;28;20300;-76
2022/01/31 00:23:27;;;;;;;22.20;9.45;;;;;;;3.40;82.85;101263.13;1032405;28;20310;-75
2022/01/31 00:23:58;;;;;;;27.05;9.02;;;;;;;3.41;82.80;101261.31;1032947;28;20703;-76
2022/01/31 00:24:30;;;;;;;23.70;9.18;;;;;;;3.42;82.23;101274.31;1036875;28;20323;-82
2022/01/31 00:25:02;;;;;;;30.02;9.60;;;;;;;3.41;82.52;101270.03;1037300;28;20300;-81
2022/01/31 00:25:33;;;;;;;24.65;9.02;;;;;;;3.45;82.41;101272.34;1040424;28;20693;-80
2022/01/31 00:26:05;;;;;;;18.65;8.40;;;;;;;3.42;82.53;101263.78;1037734;28;20304;-80
2022/01/31 00:26:36;;;;;;;24.52;9.43;;;;;;;3.42;82.59;101260.34;1037097;28;20340;-80
2022/01/31 00:27:08;;;;;;;19.05;8.68;;;;;;;3.42;82.96;101253.25;1040045;28;20315;-80
2022/01/31 00:27:40;;;;;;;26.73;8.48;;;;;;;3.38;82.84;101257.19;1032403;28;20312;-81
2022/01/31 00:28:14;;;;;;;23.45;9.63;;;;;;;3.39;83.04;101253.56;1033042;28;20305;-81
2022/01/31 00:28:45;;;;;;;21.88;8.85;;;;;;;3.44;82.68;101244.38;1036498;28;21058;-81
2022/01/31 00:29:17;;;;;;;29.10;8.85;;;;;;;3.40;82.93;101247.31;1041125;28;20319;-81
2022/01/31 00:29:49;;;;;;;21.02;8.48;;;;;;;3.44;83.62;101247.00;1044311;28;20724;-80
2022/01/31 00:30:20;;;;;;;24.67;8.80;;;;;;;3.44;82.85;101233.84;1044236;28;20390;-81
2022/01/31 00:30:52;;;;;;;33.80;9.65;;;;;;;3.45;82.50;101224.94;1044736;28;20299;-81
2022/01/31 00:31:23;;;;;;;28.65;8.98;;;;;;;3.42;83.16;101226.94;1040200;28;20346;-80
2022/01/31 00:31:55;;;;;;;27.95;9.95;;;;;;;3.40;82.85;101226.25;1036969;28;20291;-81
2022/01/31 00:32:29;;;;;;;26.20;9.38;;;;;;;3.42;83.02;101224.28;1036382;28;20296;-81
2022/01/31 00:33:01;;;;;;;21.08;9.65;;;;;;;3.42;82.94;101216.38;1036376;28;20790;-80
2022/01/31 00:33:33;;;;;;;19.83;9.25;;;;;;;3.45;82.76;101217.06;1041410;28;20298;-80
2022/01/31 00:34:05;;;;;;;23.83;9.52;;;;;;;3.46;82.61;101216.06;1041060;28;20318;-80
2022/01/31 00:34:36;;;;;;;23.17;9.02;;;;;;;3.45;82.82;101211.78;1039711;28;20646;-81
2022/01/31 00:35:27;;;;;;;24.00;9.02;;;;;;;3.40;82.88;101212.28;1040589;28;20871;-80
2022/01/31 00:35:59;;;;;;;25.00;9.02;;;;;;;3.40;82.85;101194.66;1042832;28;20040;-81
2022/01/31 00:36:30;;;;;;;24.65;7.50;;;;;;;3.40;83.16;101202.56;1047783;28;20287;-81
2022/01/31 00:37:02;;;;;;;28.27;9.48;;;;;;;3.41;83.11;101195.50;1045997;28;20445;-80
2022/01/31 00:37:34;;;;;;;26.45;9.43;;;;;;;3.41;82.79;101187.59;1044230;28;20306;-81
2022/01/31 00:38:05;;;;;;;24.55;10.07;;;;;;;3.38;82.98;101182.66;1040561;28;20794;-81
2022/01/31 00:38:37;;;;;;;27.15;9.40;;;;;;;3.41;83.25;101188.41;1036143;28;20296;-80
2022/01/31 00:39:08;;;;;;;20.92;9.05;;;;;;;3.41;83.23;101190.22;1036760;28;20292;-80
2022/01/31 00:39:40;;;;;;;24.10;9.27;;;;;;;3.41;83.42;101183.16;1040844;28;20307;-80
2022/01/31 00:40:12;;;;;;;23.58;9.30;;;;;;;3.42;83.12;101178.69;1040736;28;20314;-81
2022/01/31 00:40:44;;;;;;;20.63;9.88;;;;;;;3.41;83.28;101187.59;1040375;28;20655;-81
2022/01/31 00:41:15;;;;;;;14.77;8.43;;;;;;;3.42;83.42;101179.53;1035906;28;20300;-80
2022/01/31 00:41:47;;;;;;;29.30;9.20;;;;;;;3.41;83.16;101180.50;1036198;28;20723;-80
2022/01/31 00:42:22;;;;;;;21.77;9.30;;;;;;;3.39;83.71;101179.84;1036527;28;20292;-81
2022/01/31 00:42:54;;;;;;;26.63;9.20;;;;;;;3.39;83.63;101174.59;1037059;28;20312;-80
2022/01/31 00:43:26;;;;;;;22.85;10.25;;;;;;;3.36;83.55;101163.56;1037424;28;20384;-81
2022/01/31 00:44:12;;;;;;;18.42;8.82;;;;;;;3.36;83.79;101169.66;1040318;28;20796;-75
2022/01/31 00:44:52;;;;;;;22.42;7.75;;;;;;;3.38;83.75;101157.16;1033169;28;20305;-76
2022/01/31 00:45:29;;;;;;;28.13;10.05;;;;;;;3.40;83.36;101157.81;1040124;28;20300;-76
2022/01/31 00:46:08;;;;;;;25.17;8.95;;;;;;;3.39;83.71;101148.25;1040234;28;20307;-75
2022/01/31 00:46:45;;;;;;;27.48;9.35;;;;;;;3.37;83.90;101142.34;1039476;28;20347;-76
2022/01/31 00:47:21;;;;;;;24.70;10.57;;;;;;;3.38;83.61;101146.59;1040326;28;20296;-76
2022/01/31 00:48:05;;;;;;;28.08;10.55;;;;;;;3.40;83.80;101147.28;1039913;28;20310;-75
2022/01/31 00:48:46;;;;;;;25.77;10.02;;;;;;;3.45;83.85;101130.16;1040461;28;20300;-76
2022/01/31 00:49:35;;;;;;;;;;;;;;;3.46;83.82;101118.63;1036541;28;20355;-75
2022/01/31 00:50:09;;;;;;;21.90;8.32;;;;;;;3.40;83.84;101118.31;1040187;28;19920;-76
2022/01/31 00:50:44;;;;;;;22.38;7.50;;;;;;;3.44;84.05;101117.97;1036151;28;20311;-75
2022/01/31 00:51:16;;;;;;;28.17;10.25;;;;;;;3.45;83.48;101114.34;1038902;28;20796;-75
2022/01/31 00:51:48;;;;;;;23.48;8.18;;;;;;;3.45;83.88;101101.19;1036084;28;20809;-76
2022/01/31 00:52:20;;;;;;;30.27;9.10;;;;;;;3.50;83.62;101109.41;1036389;28;20288;-76
2022/01/31 00:52:51;;;;;;;19.17;9.10;;;;;;;3.49;83.68;101116.50;1037434;28;20320;-75
2022/01/31 00:53:23;;;;;;;28.02;10.10;;;;;;;3.50;83.66;101114.69;1040068;28;20292;-76
2022/01/31 00:53:54;;;;;;;25.60;9.05;;;;;;;3.51;83.31;101116.34;1036354;28;20311;-76
2022/01/31 00:54:26;;;;;;;17.27;8.63;;;;;;;3.51;83.61;101114.53;1040004;28;20314;-78
2022/01/31 00:54:58;;;;;;;38.83;9.70;;;;;;;3.50;83.50;101119.94;1040280;28;20296;-75
2022/01/31 00:55:30;;;;;;;17.40;7.65;;;;;;;3.49;83.59;101107.78;1040508;28;20300;-76
2022/01/31 00:56:02;;;;;;;27.75;8.50;;;;;;;3.50;83.19;101114.69;1039894;28;20433;-81
2022/01/31 00:56:33;;;;;;;17.30;8.68;;;;;;;3.48;83.21;101114.03;1035791;28;20297;-81
2022/01/31 00:57:05;;;;;;;25.38;9.35;;;;;;;3.49;83.69;101113.03;1036311;28;20359;-81
2022/01/31 00:57:37;;;;;;;27.15;8.90;;;;;;;3.47;83.85;101107.94;1036085;28;20324;-81
2022/01/31 00:58:08;;;;;;;24.13;8.80;;;;;;;3.46;83.96;101105.47;1032229;28;20404;-80
2022/01/31 00:58:40;;;;;;;24.27;8.48;;;;;;;3.42;84.20;101103.16;1032118;28;20301;-80
2022/01/31 00:59:12;;;;;;;22.30;9.90;;;;;;;3.42;84.23;101099.72;1032418;28;20392;-81
2022/01/31 00:59:43;;;;;;;23.33;9.40;;;;;;;3.45;83.97;101098.56;1036944;28;20336;-81
2022/01/31 01:00:16;;;;;;;26.48;8.60;;;;;;;3.46;84.07;101095.75;1039841;28;20766;-80
2022/01/31 01:00:47;;;;;;;23.85;8.10;;;;;;;3.44;84.56;101089.00;1036237;28;20308;-80
2022/01/31 01:01:19;;;;;;;22.83;9.50;;;;;;;3.41;84.14;101095.44;1032359;28;20376;-81
2022/01/31 01:01:51;;;;;;;27.00;9.93;;;;;;;3.42;85.10;101090.00;1036125;28;20400;-80
2022/01/31 01:02:24;;;;;;;23.02;8.73;;;;;;;3.40;84.61;101091.97;1032747;28;20724;-79
2022/01/31 01:02:56;;;;;;;22.83;9.50;;;;;;;3.40;85.08;101089.34;1033222;28;20387;-81
2022/01/31 01:03:28;;;;;;;32.55;8.65;;;;;;;3.38;84.98;101083.41;1032474;28;20309;-81
2022/01/31 01:03:59;;;;;;;26.42;9.05;;;;;;;3.39;85.03;101077.16;1036362;28;20308;-82
2022/01/31 01:04:31;;;;;;;20.45;8.43;;;;;;;3.41;84.88;101075.19;1036699;28;20794;-80
2022/01/31 01:05:04;;;;;;;21.55;8.77;;;;;;;3.39;84.70;101069.28;1036575;28;20319;-81
2022/01/31 01:05:36;;;;;;;19.42;7.82;;;;;;;3.45;84.88;101061.69;1036225;28;20798;-82
2022/01/31 01:06:11;;;;;;;28.73;9.32;;;;;;;3.45;84.97;101061.69;1032007;28;20336;-81
2022/01/31 01:06:42;;;;;;;20.25;9.88;;;;;;;3.44;84.94;101060.03;1029257;28;20302;-81
2022/01/31 01:07:15;;;;;;;29.73;10.20;;;;;;;3.40;85.12;101054.28;1032064;28;20313;-81
2022/01/31 01:07:46;;;;;;;28.55;9.50;;;;;;;3.39;85.55;101060.53;1033114;28;20308;-81
2022/01/31 01:08:18;;;;;;;26.92;9.98;;;;;;;3.34;85.67;101063.66;1032656;28;20308;-81
2022/01/31 01:08:49;;;;;;;22.45;8.70;;;;;;;3.33;85.64;101059.41;1036197;28;20293;-81
2022/01/31 01:09:21;;;;;;;25.73;9.48;;;;;;;3.34;85.78;101058.41;1036044;28;20311;-82
2022/01/31 01:09:52;;;;;;;21.58;8.40;;;;;;;3.34;86.37;101049.69;1039905;28;20436;-82
2022/01/31 01:10:24;;;;;;;29.42;9.15;;;;;;;3.34;85.80;101055.78;1040202;28;20674;-81
2022/01/31 01:10:55;;;;;;;33.00;9.43;;;;;;;3.36;86.24;101055.59;1040727;28;20643;-81
2022/01/31 01:11:27;;;;;;;25.65;10.18;;;;;;;3.37;86.56;101057.25;1040159;28;20304;-81
2022/01/31 01:11:59;;;;;;;31.15;8.82;;;;;;;3.38;86.31;101057.09;1036292;28;20358;-81
2022/01/31 01:12:30;;;;;;;31.25;9.48;;;;;;;3.29;86.63;101047.56;1036002;28;20304;-82
2022/01/31 01:13:03;;;;;;;23.50;9.60;;;;;;;3.29;87.41;101052.81;1033525;28;20344;-81
2022/01/31 01:13:34;;;;;;;35.75;10.23;;;;;;;3.28;87.52;101052.94;1028340;28;20314;-81
2022/01/31 01:14:06;;;;;;;28.48;10.23;;;;;;;3.30;87.36;101043.09;1024010;29;20389;-81
2022/01/31 01:14:38;;;;;;;19.85;10.00;;;;;;;3.29;87.32;101042.28;1028123;28;20302;-81
2022/01/31 01:15:10;;;;;;;25.17;10.65;;;;;;;3.28;87.34;101045.06;1030801;28;20791;-80
2022/01/31 01:15:42;;;;;;;33.30;10.50;;;;;;;3.24;87.71;101034.03;1032061;28;20396;-81
2022/01/31 01:16:14;;;;;;;30.83;10.23;;;;;;;3.26;87.81;101042.59;1029097;28;20404;-80
2022/01/31 01:16:46;;;;;;;25.17;10.32;;;;;;;3.27;88.22;101030.25;1028314;28;20326;-82
2022/01/31 01:17:17;;;;;;;27.95;11.70;;;;;;;3.25;88.33;101032.22;1031894;28;20428;-82
2022/01/31 01:17:51;;;;;;;23.50;11.07;;;;;;;3.26;88.50;101031.22;1032952;28;20316;-81
2022/01/31 01:18:23;;;;;;;25.58;10.52;;;;;;;3.23;88.85;101032.38;1032962;28;20361;-81
2022/01/31 01:18:55;;;;;;;26.63;11.70;;;;;;;3.20;88.92;101027.44;1037203;28;20293;-81
2022/01/31 01:19:26;;;;;;;26.65;10.73;;;;;;;3.20;89.58;101016.91;1036007;28;20886;-81
2022/01/31 01:19:58;;;;;;;25.13;10.07;;;;;;;3.22;89.23;101016.75;1032735;28;20355;-80
2022/01/31 01:20:30;;;;;;;24.98;10.80;;;;;;;3.18;89.39;101018.91;1035944;28;20355;-81
2022/01/31 01:21:02;;;;;;;22.50;11.48;;;;;;;3.17;89.77;101006.72;1037033;28;20316;-81
2022/01/31 01:21:34;;;;;;;28.67;10.90;;;;;;;3.13;89.83;101018.56;1032582;28;20316;-81
2022/01/31 01:22:06;;;;;;;23.45;10.68;;;;;;;3.14;89.75;101019.41;1037225;28;20802;-80
2022/01/31 01:22:37;;;;;;;25.85;11.07;;;;;;;3.13;89.91;101009.84;1039621;28;20308;-80
2022/01/31 01:23:09;;;;;;;36.10;11.65;;;;;;;3.10;90.14;101005.75;1040464;28;20280;-80
2022/01/31 01:23:41;;;;;;;27.25;11.77;;;;;;;3.08;90.76;101010.34;1035972;28;20311;-81
2022/01/31 01:24:14;;;;;;;22.02;10.13;;;;;;;3.06;90.92;101001.78;1032513;28;20834;-81
2022/01/31 01:24:48;;;;;;;28.25;10.15;;;;;;;3.01;91.16;101004.91;1036044;28;20417;-80
2022/01/31 01:25:21;;;;;;;31.15;11.55;;;;;;;3.02;91.57;101003.13;1033305;28;20825;-80
2022/01/31 01:25:52;;;;;;;27.40;10.93;;;;;;;3.01;91.56;100996.19;1033306;28;20412;-80
2022/01/31 01:26:24;;;;;;;31.95;12.13;;;;;;;3.00;91.89;100997.16;1031987;28;20358;-81
2022/01/31 01:27:00;;;;;;;38.90;10.65;;;;;;;2.99;92.26;100992.88;1031936;28;20332;-81
2022/01/31 01:27:32;;;;;;;31.40;13.02;;;;;;;2.98;92.74;100999.13;1035054;28;20297;-80
2022/01/31 01:28:04;;;;;;;23.90;12.60;;;;;;;2.97;92.70;100994.84;1033106;28;20305;-80
2022/01/31 01:28:36;;;;;;;30.85;11.77;;;;;;;2.96;93.07;100993.22;1035675;28;20307;-81
2022/01/31 01:29:08;;;;;;;29.13;11.68;;;;;;;2.98;92.29;100996.50;1035860;28;20309;-80
2022/01/31 01:29:39;;;;;;;30.13;11.57;;;;;;;2.97;92.69;100997.50;1032593;28;20293;-80
2022/01/31 01:30:13;;;;;;;28.17;11.63;;;;;;;2.91;93.21;100988.44;1031322;28;20309;-80
2022/01/31 01:30:45;;;;;;;27.20;11.85;;;;;;;2.93;93.72;100983.03;1027953;28;20298;-81
2022/01/31 01:31:17;;;;;;;26.08;12.43;;;;;;;2.94;93.45;100982.03;1024002;29;20317;-80
2022/01/31 01:31:50;;;;;;;30.35;12.57;;;;;;;2.92;93.53;100981.38;1024618;28;20334;-80
2022/01/31 01:32:28;;;;;;;27.02;11.57;;;;;;;2.88;94.02;100970.34;1029307;28;20312;-80
2022/01/31 01:33:06;;;;;;;28.83;12.43;;;;;;;2.90;94.28;100970.19;1031068;28;20294;-81
2022/01/31 01:33:40;;;;;;;32.53;10.95;;;;;;;2.88;93.89;100969.53;1032128;28;20427;-80
2022/01/31 01:34:12;;;;;;;27.38;12.52;;;;;;;2.88;94.36;100962.47;1034067;28;20722;-80
2022/01/31 01:34:44;;;;;;;33.17;11.60;;;;;;;2.94;94.57;100950.47;1038194;28;20354;-80
2022/01/31 01:35:18;;;;;;;32.88;11.88;;;;;;;2.96;94.64;100973.00;1037440;28;20359;-79
2022/01/31 01:35:53;;;;;;;35.13;12.98;;;;;;;2.88;94.67;100959.00;1039314;28;20395;-80
2022/01/31 01:36:26;;;;;;;33.80;11.13;;;;;;;2.83;95.16;100954.25;1035611;28;20399;-80
2022/01/31 01:36:58;;;;;;;33.90;12.32;;;;;;;2.86;94.86;100950.47;1042962;28;20323;-80
2022/01/31 01:37:29;;;;;;;21.85;12.02;;;;;;;2.88;94.80;100954.56;1040098;28;20310;-80
2022/01/31 01:38:06;;;;;;;34.00;12.68;;;;;;;2.88;95.32;100953.75;1040223;28;20566;-81
2022/01/31 01:38:39;;;;;;;32.63;12.73;;;;;;;2.84;95.56;100942.75;1036001;28;20300;-81
2022/01/31 01:39:11;;;;;;;28.73;10.82;;;;;;;2.84;95.03;100947.19;1031453;28;20882;-80
2022/01/31 01:39:45;;;;;;;24.60;10.98;;;;;;;2.83;95.52;100953.44;1029085;28;20318;-80
2022/01/31 01:40:17;;;;;;;35.03;12.13;;;;;;;2.80;95.62;100936.16;1029819;28;20331;-80
2022/01/31 01:40:49;;;;;;;32.85;13.30;;;;;;;2.81;95.52;100929.91;1032961;28;20311;-81
2022/01/31 01:41:22;;;;;;;33.03;13.02;;;;;;;2.78;96.24;100938.97;1033337;28;20313;-81
2022/01/31 01:41:54;;;;;;;33.35;13.40;;;;;;;2.80;95.43;100930.91;1032548;28;20308;-80
2022/01/31 01:42:26;;;;;;;31.50;13.02;;;;;;;2.78;95.67;100928.44;1028154;28;20310;-80
2022/01/31 01:42:58;;;;;;;32.95;13.35;;;;;;;2.78;95.84;100928.44;1028608;28;20324;-81
2022/01/31 01:43:30;;;;;;;40.78;13.60;;;;;;;2.77;96.02;100932.06;1032497;28;20833;-81
2022/01/31 01:44:02;;;;;;;32.08;14.30;;;;;;;2.76;96.47;100925.16;1033535;28;20301;-82
2022/01/31 01:44:42;;;;;;;30.20;12.90;;;;;;;2.72;96.28;100928.25;1032086;28;20301;-83
2022/01/31 01:45:15;;;;;;;28.13;11.95;;;;;;;2.72;96.26;100918.53;1032002;28;20799;-82
2022/01/31 01:45:51;;;;;;;26.42;12.07;;;;;;;2.74;96.49;100921.88;1033993;28;20308;-81
2022/01/31 01:46:23;;;;;;;28.25;12.57;;;;;;;2.74;96.55;100921.88;1031939;28;20301;-80
2022/01/31 01:46:55;;;;;;;31.10;12.45;;;;;;;2.73;96.98;100914.94;1033152;28;20731;-81
2022/01/31 01:47:27;;;;;;;30.85;13.35;;;;;;;2.74;96.85;100911.34;1029126;28;20341;-80
2022/01/31 01:47:59;;;;;;;28.25;12.45;;;;;;;2.75;97.12;100907.72;1028628;28;20400;-80
2022/01/31 01:48:31;;;;;;;29.20;12.88;;;;;;;2.71;97.18;100916.91;1027429;28;20314;-81
2022/01/31 01:49:03;;;;;;;30.40;13.25;;;;;;;2.67;96.93;100905.06;1033724;28;20301;-81
2022/01/31 01:49:35;;;;;;;26.60;13.50;;;;;;;2.67;96.97;100899.81;1035215;28;20308;-81
2022/01/31 01:50:07;;;;;;;32.10;14.88;;;;;;;2.64;97.46;100905.41;1028337;28;20338;-81
2022/01/31 01:50:40;;;;;;;34.85;14.95;;;;;;;2.62;97.68;100910.00;1032325;28;20676;-81
2022/01/31 01:51:13;;;;;;;34.38;13.07;;;;;;;2.63;97.68;100909.00;1033417;28;20341;-80
2022/01/31 01:51:44;;;;;;;24.15;11.85;;;;;;;2.65;98.23;100907.03;1035558;28;20326;-82
2022/01/31 01:52:17;;;;;;;33.53;14.15;;;;;;;2.66;98.20;100902.59;1027740;28;20381;-80
2022/01/31 01:52:50;;;;;;;35.47;13.32;;;;;;;2.67;98.02;100894.56;1028874;28;20286;-81
2022/01/31 01:53:22;;;;;;;29.42;13.50;;;;;;;2.66;98.04;100898.16;1028479;28;20302;-80
2022/01/31 01:53:54;;;;;;;28.15;12.63;;;;;;;2.66;98.15;100882.38;1029674;28;20397;-82
2022/01/31 01:54:26;;;;;;;32.78;13.07;;;;;;;2.66;98.35;100898.16;1032549;28;20301;-81
2022/01/31 01:54:58;;;;;;;27.25;13.98;;;;;;;2.64;98.33;100892.25;1032531;28;20339;-81
2022/01/31 01:55:30;;;;;;;27.85;13.00;;;;;;;2.64;98.46;100888.78;1032319;28;20436;-80
2022/01/31 01:56:02;;;;;;;34.53;14.32;;;;;;;2.64;98.66;100879.09;1028428;28;20309;-79
2022/01/31 01:56:36;;;;;;;28.42;14.00;;;;;;;2.58;98.38;100879.75;1024233;28;20695;-80
2022/01/31 01:57:08;;;;;;;29.35;14.43;;;;;;;2.60;98.61;100885.69;1024742;28;20317;-80
2022/01/31 01:57:41;;;;;;;35.53;14.70;;;;;;;2.61;98.84;100889.94;1031851;28;20309;-80
2022/01/31 01:58:16;;;;;;;27.73;13.07;;;;;;;2.62;98.65;100875.00;1027920;28;20341;-80
2022/01/31 01:58:50;;;;;;;31.45;14.45;;;;;;;2.60;98.98;100875.16;1028062;28;20306;-81
2022/01/31 01:59:22;;;;;;;25.77;14.35;;;;;;;2.57;99.00;100877.28;1028890;28;20298;-80
2022/01/31 02:00:25;;;;;;;32.75;13.32;;;;;;;2.58;99.17;100873.69;1031644;28;20309;-81
2022/01/31 02:00:59;;;;;;;29.20;13.25;;;;;;;2.57;98.97;100878.13;1036221;28;20339;-80
2022/01/31 02:02:04;;;;;;;30.30;12.23;;;;;;;2.54;99.42;100875.00;1031861;28;20298;-80
2022/01/31 02:02:36;;;;;;;27.48;13.25;;;;;;;2.55;99.32;100874.00;1036003;28;20305;-80
2022/01/31 02:03:10;;;;;;;27.55;12.13;;;;;;;2.55;99.67;100866.13;1035812;28;20730;-81
2022/01/31 02:03:42;;;;;;;29.50;12.95;;;;;;;2.56;99.74;100863.31;1031923;28;20309;-80
2022/01/31 02:04:16;;;;;;;22.88;13.10;;;;;;;2.49;99.32;100870.22;1030091;28;20333;-79
2022/01/31 02:04:47;;;;;;;39.42;14.27;;;;;;;2.47;99.77;100856.44;1032271;28;20302;-80
2022/01/31 02:05:34;;;;;;;28.98;12.60;;;;;;;2.48;99.98;100872.03;1030581;28;20314;-80
2022/01/31 02:06:07;;;;;;;27.85;14.23;;;;;;;2.45;99.88;100866.25;1034408;28;20289;-80
2022/01/31 02:06:40;;;;;;;30.88;14.18;;;;;;;2.45;100.00;100863.63;1038473;28;20307;-79
2022/01/31 02:07:13;;;;;;;24.95;12.52;;;;;;;2.45;99.75;100853.13;1036751;28;20811;-80
2022/01/31 02:07:45;;;;;;;27.83;13.10;;;;;;;2.48;99.98;100852.81;1031683;28;20420;-80
2022/01/31 02:08:19;;;;;;;26.17;12.90;;;;;;;2.44;100.00;100864.63;1031535;28;20356;-79
2022/01/31 02:08:51;;;;;;;20.52;12.23;;;;;;;2.41;100.00;100851.81;1032455;28;20432;-80
2022/01/31 02:09:31;;;;;;;21.23;12.32;;;;;;;2.37;100.00;100848.69;1037971;28;20312;-78
2022/01/31 02:10:04;;;;;;;26.25;12.20;;;;;;;2.39;100.00;100848.50;1035618;28;20833;-80
2022/01/31 02:10:40;;;;;;;24.85;12.48;;;;;;;2.40;100.00;100843.09;1035605;28;20396;-79
2022/01/31 02:11:20;;;;;;;21.58;11.13;;;;;;;2.39;100.00;100838.00;1031780;28;20309;-79
2022/01/31 02:11:55;;;;;;;18.38;12.13;;;;;;;2.39;100.00;100843.25;1033813;28;20313;-80
2022/01/31 02:12:37;;;;;;;27.67;12.60;;;;;;;2.37;100.00;100819.75;1035977;28;20327;-80
2022/01/31 02:13:09;;;;;;;20.02;12.27;;;;;;;2.37;100.00;100826.81;1039162;28;20390;-80
2022/01/31 02:14:00;;;;;;;17.15;10.77;;;;;;;2.34;100.00;100835.03;1037785;28;20370;-80
2022/01/31 02:14:52;;;;;;;19.08;10.30;;;;;;;2.35;100.00;100820.91;1019522;29;20048;-80
2022/01/31 02:15:44;;;;;;;;;;;;;;;2.36;100.00;100822.56;1028496;28;20310;-80
2022/01/31 02:16:34;;;;;;;14.57;9.15;;;;;;;2.32;100.00;100806.28;1045616;28;20027;-81
2022/01/31 02:17:26;;;;;;;13.18;8.00;;;;;;;2.37;100.00;100806.63;1040039;28;20714;-80
2022/01/31 02:18:15;;;;;;;23.15;9.80;;;;;;;2.35;100.00;100805.16;1039959;28;20813;-79
2022/01/31 02:18:52;;;;;;;18.10;9.93;;;;;;;2.34;100.00;100798.25;1032576;28;20710;-79
2022/01/31 02:19:53;;;;;;;21.25;9.77;;;;;;;2.33;100.00;100802.69;1032973;28;20313;-80
2022/01/31 02:20:30;;;;;;;21.20;9.43;;;;;;;2.35;100.00;100800.72;1034983;28;20730;-80
2022/01/31 02:21:02;;;;;;;14.88;9.43;;;;;;;2.32;100.00;100800.22;1031853;28;20301;-79
2022/01/31 02:21:36;;;;;;;22.50;10.05;;;;;;;2.33;100.00;100801.84;1032801;28;20367;-79
2022/01/31 02:22:27;;;;;;;;;;;;;;;2.37;100.00;100797.91;1039859;28;20451;-79
2022/01/31 02:23:03;;;;;;;19.30;7.93;;;;;;;2.34;100.00;100798.25;1045378;28;19928;-80
2022/01/31 02:23:39;;;;;;;15.77;7.80;;;;;;;2.36;100.00;100796.28;1043581;28;20307;-79
2022/01/31 02:24:43;;;;;;;18.48;8.93;;;;;;;2.32;100.00;100794.97;1032626;28;20313;-80
2022/01/31 02:25:20;;;;;;;22.35;11.77;;;;;;;2.37;100.00;100790.03;1041073;28;20446;-80
2022/01/31 02:26:05;;;;;;;17.52;10.10;;;;;;;2.35;100.00;100786.75;1039884;28;20813;-79
2022/01/31 02:27:12;;;;;;;13.15;8.18;;;;;;;2.39;100.00;100785.44;1023756;29;20502;-79
2022/01/31 02:27:44;;;;;;;16.48;9.30;;;;;;;2.38;100.00;100781.16;1030463;28;20305;-79
2022/01/31 02:28:15;;;;;;;17.88;8.90;;;;;;;2.40;100.00;100780.00;1031641;28;20843;-80
2022/01/31 02:28:47;;;;;;;15.60;9.68;;;;;;;2.40;100.00;100780.00;1035643;28;20729;-80
2022/01/31 02:29:19;;;;;;;21.27;10.90;;;;;;;2.40;100.00;100774.75;1028406;28;20882;-79
2022/01/31 02:29:50;;;;;;;14.52;9.00;;;;;;;2.39;100.00;100767.03;1028120;28;20911;-79
2022/01/31 02:30:22;;;;;;;19.50;11.00;;;;;;;2.40;100.00;100766.88;1034757;28;20667;-79
2022/01/31 02:30:55;;;;;;;14.63;9.10;;;;;;;2.38;100.00;100778.53;1027795;28;20302;-79
2022/01/31 02:31:27;;;;;;;17.73;11.13;;;;;;;2.36;100.00;100760.28;1031761;28;20301;-79
2022/01/31 02:31:59;;;;;;;15.77;10.05;;;;;;;2.39;100.00;100769.66;1027471;28;20364;-79
2022/01/31 02:32:30;;;;;;;17.85;9.40;;;;;;;2.36;100.00;100756.84;1028020;28;20324;-79
2022/01/31 02:33:05;;;;;;;15.85;10.00;;;;;;;2.36;100.00;100762.94;1024389;28;20700;-79
2022/01/31 02:33:37;;;;;;;17.52;9.90;;;;;;;2.39;100.00;100756.50;1024820;28;20362;-79
2022/01/31 02:34:09;;;;;;;12.15;9.55;;;;;;;2.35;100.00;100760.47;1024521;28;20342;-79
2022/01/31 02:34:40;;;;;;;20.10;10.60;;;;;;;2.38;100.00;100749.63;1029222;28;20831;-79
2022/01/31 02:35:12;;;;;;;19.13;9.65;;;;;;;2.39;100.00;100757.34;1036381;28;20296;-80
2022/01/31 02:35:44;;;;;;;14.65;10.15;;;;;;;2.39;100.00;100753.88;1035794;28;20296;-79
2022/01/31 02:36:15;;;;;;;17.75;9.73;;;;;;;2.40;100.00;100747.66;1031599;28;20400;-79
2022/01/31 02:36:47;;;;;;;16.05;9.40;;;;;;;2.41;100.00;100757.16;1031986;28;20360;-79
2022/01/31 02:37:19;;;;;;;16.63;11.55;;;;;;;2.35;100.00;100736.81;1032166;28;20301;-79
2022/01/31 02:37:52;;;;;;;13.38;8.68;;;;;;;2.33;100.00;100734.34;1035730;28;20390;-79